Latest Weather Observations for Wudinna Airport

IDS60801

Issued at 2:11 am CDT Wednesday 19 February 2020 (issued every 10 minutes, with the page automatically refreshed every 10 minutes)

About weather observations | Map of weather stations | Latest weather observations for SA | Other Formats
Station Details ID: 018083 Name: WUDINNA AERO Lat: -33.04 Lon: 135.45 Height: 86.4 m
Data from the previous 72 hours. | See also: Recent months at Wudinna Airport
Date/Time
CDT
Temp
°C
App
Temp
°C
Dew
Point
°C
Rel
Hum
%
Delta-T
°C
Wind Press
QNH
hPa
Press
MSL
hPa
Rain since
9am
mm
Dir  Spd
km/h
Gust
km/h
Spd
kts
Gust
kts
19/02:00am 12.9 10.7 6.3 64 3.1 S 7 9 4 5 1019.8 1019.4 0.0
19/01:30am 13.1 10.5 6.0 62 3.4 S 9 11 5 6 1019.9 1019.5 0.0
19/01:00am 14.0 10.6 6.1 59 3.8 SSE 13 17 7 9 1020.2 1019.8 0.0
19/12:30am 14.3 11.0 6.2 58 3.9 SSE 13 19 7 10 1020.3 1019.9 0.0
19/12:00am 15.0 10.9 6.3 56 4.2 SSE 17 24 9 13 1020.1 1019.7 0.0
 
Date/Time
CDT
Temp
°C
App
Temp
°C
Dew
Point
°C
Rel
Hum
%
Delta-T
°C
Wind Press
QNH
hPa
Press
MSL
hPa
Rain since
9am
mm
Dir  Spd
km/h
Gust
km/h
Spd
kts
Gust
kts
18/11:30pm 15.3 11.7 6.6 56 4.2 SSE 15 22 8 12 1020.5 1020.1 0.0
18/11:00pm 15.9 11.5 6.6 54 4.6 S 19 28 10 15 1020.4 1020.0 0.0
18/10:30pm 16.1 11.5 6.5 53 4.7 S 20 30 11 16 1020.1 1019.7 0.0
18/10:00pm 16.4 10.7 6.8 53 4.8 S 26 35 14 19 1020.0 1019.6 0.0
18/09:30pm 16.8 11.1 6.9 52 4.9 S 26 33 14 18 1019.8 1019.4 0.0
18/09:00pm 17.0 10.7 7.4 53 4.8 SSW 30 39 16 21 1019.7 1019.3 0.0
18/08:30pm 17.6 10.2 6.8 49 5.4 SSW 35 44 19 24 1019.4 1019.0 0.0
18/08:00pm 18.3 11.0 7.4 49 5.5 SSW 35 50 19 27 1018.8 1018.5 0.0
18/07:30pm 19.7 12.7 6.8 43 6.5 SSW 33 44 18 24 1018.5 1018.2 0.0
18/07:00pm 20.8 13.4 6.7 40 7.2 SSW 35 43 19 23 1018.3 1018.0 0.0
18/06:30pm 21.6 14.8 6.7 38 7.6 SSW 32 43 17 23 1018.2 1017.9 0.0
18/06:00pm 21.9 14.7 5.8 35 8.1 SSW 33 44 18 24 1017.9 1017.6 0.0
18/05:30pm 22.6 15.2 6.8 36 8.1 SSW 35 48 19 26 1017.8 1017.5 0.0
18/05:02pm 23.6 16.5 6.4 33 8.9 SSW 33 52 18 28 1017.6 1017.3 0.0
18/05:00pm 22.9 15.3 5.8 33 8.7 SSW 35 52 19 28 1017.7 1017.4 0.0
18/04:56pm 23.2 15.9 5.6 32 8.9 SSW 33 52 18 28 1017.6 1017.3 0.0
18/04:30pm 24.1 17.0 6.4 32 9.1 SSW 33 48 18 26 1017.7 1017.4 0.0
18/04:00pm 24.1 17.2 6.4 32 9.1 SSW 32 46 17 25 1017.7 1017.4 0.0
18/03:30pm 24.2 17.1 5.5 30 9.5 SSW 32 48 17 26 1017.9 1017.6 0.0
18/03:24pm 24.1 17.5 5.9 31 9.3 SSW 30 48 16 26 1017.7 1017.4 0.0
18/03:00pm 23.3 16.1 5.7 32 8.9 SSW 33 48 18 26 1018.0 1017.7 0.0
18/02:30pm 23.7 15.8 4.6 29 9.5 SSW 35 50 19 27 1018.1 1017.8 0.0
18/02:23pm 24.6 17.4 4.9 28 9.9 SSW 32 50 17 27 1018.1 1017.8 0.0
18/02:00pm 23.5 16.8 5.4 31 9.1 SSW 30 43 16 23 1018.3 1018.0 0.0
18/01:30pm 23.9 17.0 4.8 29 9.5 S 30 46 16 25 1018.4 1018.1 0.0
18/01:00pm 22.7 15.4 5.6 33 8.6 SSW 33 46 18 25 1018.7 1018.4 0.0
18/12:30pm 22.5 15.9 5.9 34 8.4 SSW 30 43 16 23 1019.0 1018.7 0.0
18/12:00pm 22.0 15.6 5.0 33 8.4 S 28 37 15 20 1019.3 1018.9 0.0
18/11:30am 21.6 14.5 5.5 35 8.0 SSW 32 41 17 22 1019.4 1019.0 0.0
18/11:00am 20.8 14.2 6.0 38 7.4 SSW 30 39 16 21 1019.4 1019.0 0.0
18/10:30am 20.3 13.4 6.6 41 6.9 SSW 32 41 17 22 1019.4 1019.0 0.0
18/10:00am 19.5 13.6 7.6 46 6.1 S 28 37 15 20 1019.4 1019.0 0.0
18/09:30am 19.2 12.1 6.3 43 6.4 SSW 33 46 18 25 1019.3 1018.9 0.0
18/09:23am 19.1 13.0 6.6 44 6.3 S 28 46 15 25 1019.3 1018.9 0.0
18/09:00am 17.9 11.4 6.7 48 5.6 S 30 39 16 21 1019.3 1018.9 0.2
18/08:30am 17.2 10.4 7.0 51 5.1 SSW 32 46 17 25 1018.7 1018.4 0.2
18/08:00am 16.5 10.0 8.2 58 4.2 SSW 32 41 17 22 1018.5 1018.2 0.2
18/07:30am 16.5 11.4 10.6 68 3.1 SSW 28 37 15 20 1017.9 1017.6 0.2
18/07:00am 16.2 13.5 11.6 74 2.5 SW 17 22 9 12 1017.3 1016.9 0.2
18/06:30am 16.0 11.9 11.4 74 2.5 SW 24 32 13 17 1017.0 1016.6 0.2
18/06:00am 16.4 12.4 11.8 74 2.5 SW 24 32 13 17 1016.6 1016.2 0.2
18/05:30am 16.5 12.1 13.0 80 2.0 SSW 28 37 15 20 1016.2 1015.8 0.2
18/05:00am 17.3 14.1 13.0 76 2.4 SW 22 30 12 16 1015.8 1015.4 0.0
18/04:30am 17.3 14.5 14.4 83 1.7 SSW 22 32 12 17 1015.7 1015.3 0.0
18/04:00am 17.1 12.7 14.2 83 1.7 SSW 30 39 16 21 1015.4 1015.0 0.0
18/03:30am 16.9 11.7 14.5 86 1.4 SSW 35 46 19 25 1015.2 1014.8 0.0
18/03:00am 17.8 14.1 16.1 90 1.0 SW 30 37 16 20 1015.1 1014.7 0.0
18/02:30am 18.7 16.5 14.8 78 2.3 SW 20 26 11 14 1015.1 1014.7 0.0
18/02:00am 18.7 16.1 15.0 79 2.2 SW 22 28 12 15 1015.1 1014.7 0.0
18/01:30am 19.0 14.9 14.9 77 2.4 SW 30 39 16 21 1015.3 1014.9 0.0
18/01:00am 19.2 14.8 15.1 77 2.4 SW 32 43 17 23 1015.2 1014.8 0.0
18/12:30am 19.3 14.7 15.0 76 2.5 SW 33 44 18 24 1014.9 1014.5 0.0
18/12:00am 19.4 15.4 15.3 77 2.4 SW 30 39 16 21 1014.9 1014.5 0.0
 
Date/Time
CDT
Temp
°C
App
Temp
°C
Dew
Point
°C
Rel
Hum
%
Delta-T
°C
Wind Press
QNH
hPa
Press
MSL
hPa
Rain since
9am
mm
Dir  Spd
km/h
Gust
km/h
Spd
kts
Gust
kts
17/11:30pm 19.3 15.8 15.6 79 2.2 WSW 28 37 15 20 1014.7 1014.3 0.0
17/11:00pm 19.4 15.0 15.7 79 2.2 WSW 33 44 18 24 1014.5 1014.1 0.0
17/10:30pm 19.9 15.1 15.7 77 2.5 WSW 35 46 19 25 1014.5 1014.1 0.0
17/10:00pm 20.2 15.6 16.0 77 2.5 WSW 35 44 19 24 1014.3 1013.9 0.0
17/09:30pm 20.9 16.5 15.2 70 3.4 WSW 32 39 17 21 1013.8 1013.4 0.0
17/09:00pm 21.5 19.0 15.1 67 3.8 WSW 22 28 12 15 1013.0 1012.6 0.0
17/08:30pm 22.7 18.4 14.3 59 5.0 WSW 30 43 16 23 1012.6 1012.2 0.0
17/08:00pm 23.8 17.4 14.2 55 5.7 WSW 41 50 22 27 1011.4 1011.0 0.0
17/07:30pm 26.6 19.7 14.0 46 7.5 WSW 43 54 23 29 1010.7 1010.3 0.0
17/07:26pm 26.9 20.5 13.3 43 8.0 WSW 39 52 21 28 1010.5 1010.1 0.0
17/07:00pm 32.1 24.7 11.3 28 12.2 WSW 41 50 22 27 1009.8 1009.4 0.0
17/06:30pm 36.2 27.7 3.4 13 17.3 W 37 50 20 27 1009.4 1009.0 0.0
17/06:00pm 36.8 27.3 1.5 11 18.1 W 41 50 22 27 1009.3 1008.9 0.0
17/05:37pm 37.0 29.0 1.7 11 18.2 W 33 57 18 31 1009.0 1008.6 0.0
17/05:30pm 37.1 29.1 1.8 11 18.3 W 33 44 18 24 1009.3 1008.9 0.0
17/05:00pm 37.8 30.9 2.3 11 18.6 W 28 41 15 22 1009.5 1009.1 0.0
17/04:30pm 39.1 32.5 1.9 10 19.5 WSW 26 37 14 20 1009.4 1009.0 0.0
17/04:00pm 38.7 32.0 1.6 10 19.3 WSW 26 41 14 22 1009.9 1009.5 0.0
17/03:30pm 38.1 31.7 1.2 10 19.0 WSW 24 39 13 21 1010.1 1009.7 0.0
17/03:00pm 38.4 34.2 1.4 10 19.2 SW 13 26 7 14 1010.5 1010.1 0.0
17/02:30pm 37.5 32.8 0.7 10 18.7 SW 15 26 8 14 1010.8 1010.4 0.0
17/02:00pm 36.9 32.1 0.3 10 18.4 WNW 15 24 8 13 1011.1 1010.7 0.0
17/01:30pm 35.8 30.9 -0.5 10 18.0 WNW 15 24 8 13 1011.2 1010.8 0.0
17/01:00pm 35.8 32.0 -0.5 10 17.9 W 9 19 5 10 1011.7 1011.3 0.0
17/12:30pm 35.3 31.5 -0.9 10 17.7 W 9 19 5 10 1012.1 1011.7 0.0
17/12:00pm 33.6 30.5 1.4 13 16.2 S 7 13 4 7 1012.2 1011.8 0.0
17/11:30am 32.8 29.4 1.8 14 15.6 SSE 9 15 5 8 1012.2 1011.8 0.0
17/11:00am 32.0 29.0 2.1 15 15.0 NW 7 11 4 6 1012.5 1012.1 0.0
17/10:30am 31.1 28.1 4.0 18 14.0 ENE 9 13 5 7 1012.5 1012.1 0.0
17/10:00am 29.7 26.4 4.4 20 13.1 ENE 11 15 6 8 1012.5 1012.1 0.0
17/09:30am 28.5 25.5 4.1 21 12.4 ENE 9 11 5 6 1012.5 1012.1 0.0
17/09:00am 26.0 23.3 5.6 27 10.5 ENE 9 13 5 7 1012.3 1011.9 0.0
17/08:30am 23.3 20.3 6.1 33 8.8 NE 11 15 6 8 1012.2 1011.8 0.0
17/08:00am 20.4 18.0 7.1 42 6.8 ENE 9 13 5 7 1012.1 1011.7 0.0
17/07:56am 20.0 17.7 7.4 44 6.5 ENE 9 13 5 7 1012.0 1011.6 0.0
17/07:30am 15.0 13.5 5.2 52 4.6 ENE 2 9 1 5 1011.9 1011.5 0.0
17/07:00am 15.9 13.9 6.1 52 4.8 ENE 6 7 3 4 1011.8 1011.4 0.0
17/06:30am 13.8 11.2 4.4 53 4.3 E 7 9 4 5 1011.3 1010.9 0.0
17/06:00am 13.2 11.8 3.3 51 4.4 CALM 0 6 0 3 1011.2 1010.8 0.0
17/05:30am 13.5 12.1 3.6 51 4.5 CALM 0 0 0 0 1011.2 1010.8 0.0
17/05:00am 14.1 12.8 4.1 51 4.6 CALM 0 0 0 0 1011.3 1010.9 0.0
17/04:30am 13.8 12.4 3.3 49 4.7 CALM 0 0 0 0 1011.0 1010.6 0.0
17/04:00am 14.4 12.0 4.1 50 4.7 ENE 6 7 3 4 1011.2 1010.8 0.0
17/03:30am 15.3 12.6 3.8 46 5.3 E 7 9 4 5 1011.2 1010.8 0.0
17/03:00am 16.8 13.9 4.5 44 5.8 ENE 9 11 5 6 1011.3 1010.9 0.0
17/02:30am 17.5 14.6 4.5 42 6.2 ESE 9 11 5 6 1011.8 1011.4 0.0
17/02:00am 18.1 15.1 3.9 39 6.7 ESE 9 9 5 5 1012.0 1011.6 0.0
17/01:30am 19.0 16.4 4.4 38 7.0 ESE 7 11 4 6 1012.1 1011.7 0.0
17/01:00am 18.6 15.0 2.9 35 7.3 ENE 11 17 6 9 1012.1 1011.7 0.0
17/12:30am 19.4 16.3 3.6 35 7.5 E 9 11 5 6 1012.6 1012.2 0.0
17/12:00am 20.4 17.4 4.0 34 7.9 SE 9 13 5 7 1012.6 1012.2 0.0
 
Date/Time
CDT
Temp
°C
App
Temp
°C
Dew
Point
°C
Rel
Hum
%
Delta-T
°C
Wind Press
QNH
hPa
Press
MSL
hPa
Rain since
9am
mm
Dir  Spd
km/h
Gust
km/h
Spd
kts
Gust
kts
16/11:30pm 21.0 17.9 3.7 32 8.3 SE 9 13 5 7 1012.6 1012.2 0.0
16/11:00pm 21.4 18.7 3.6 31 8.6 E 7 11 4 6 1012.7 1012.3 0.0
16/10:30pm 22.7 19.3 3.8 29 9.2 E 11 17 6 9 1012.9 1012.5 0.0
16/10:00pm 24.0 20.3 4.4 28 9.8 ESE 13 19 7 10 1012.9 1012.5 0.0
16/09:30pm 24.8 20.5 5.1 28 10.0 ESE 17 22 9 12 1012.4 1012.0 0.0
16/09:00pm 25.9 21.5 4.9 26 10.7 ESE 17 24 9 13 1012.2 1011.8 0.0
16/08:30pm 27.3 22.7 5.6 25 11.3 E 19 28 10 15 1011.7 1011.3 0.0
16/08:00pm 29.2 24.5 5.3 22 12.5 ESE 19 28 10 15 1011.5 1011.1 0.0
16/07:30pm 30.8 26.4 4.5 19 13.7 SSE 17 30 9 16 1011.5 1011.1 0.0
16/07:00pm 31.2 27.5 2.4 16 14.5 S 11 17 6 9 1011.6 1011.2 0.0
16/06:30pm 31.6 27.2 2.7 16 14.7 S 15 30 8 16 1011.6 1011.2 0.0
16/06:00pm 31.6 27.6 2.7 16 14.7 S 13 22 7 12 1011.7 1011.3 0.0
16/05:30pm 31.6 27.6 2.7 16 14.7 S 13 24 7 13 1011.8 1011.4 0.0
16/05:00pm 31.5 27.1 2.7 16 14.6 SE 15 22 8 12 1011.9 1011.5 0.0
16/04:30pm 32.0 28.4 3.1 16 14.8 SE 11 24 6 13 1012.1 1011.7 0.0
16/04:00pm 31.1 26.6 2.3 16 14.5 ESE 15 24 8 13 1012.3 1011.9 0.0
16/03:30pm 30.3 26.2 4.1 19 13.5 SSE 15 28 8 15 1012.4 1012.0 0.0
16/03:00pm 30.0 25.4 3.9 19 13.4 SE 17 24 9 13 1012.8 1012.4 0.0
16/02:30pm 29.3 26.1 3.3 19 13.1 SSE 9 20 5 11 1013.1 1012.7 0.0
16/02:00pm 28.5 25.1 6.0 24 11.8 ESE 13 24 7 13 1013.7 1013.3 0.0
16/01:30pm 27.1 22.7 4.8 24 11.4 SSE 17 24 9 13 1014.1 1013.7 0.0
16/01:00pm 26.2 22.2 6.8 29 10.2 S 17 26 9 14 1014.8 1014.4 0.0
16/12:30pm 25.3 21.8 7.4 32 9.5 SSE 15 26 8 14 1015.0 1014.6 0.0
16/12:00pm 24.3 21.5 8.7 37 8.4 S 13 20 7 11 1015.6 1015.2 0.0
16/11:30am 23.5 20.6 9.5 41 7.6 SE 15 26 8 14 1015.5 1015.1 0.0
16/11:00am 22.8 19.8 10.6 46 6.7 ESE 17 26 9 14 1015.6 1015.2 0.0
16/10:30am 21.1 17.7 10.6 51 5.7 ESE 19 26 10 14 1015.9 1015.5 0.0
16/10:00am 20.3 17.5 11.5 57 4.9 ESE 17 24 9 13 1016.1 1015.7 0.0
16/09:30am 19.2 16.8 11.5 61 4.2 ESE 15 22 8 12 1016.1 1015.7 0.0
16/09:00am 17.6 14.9 11.6 68 3.3 ESE 17 22 9 12 1016.0 1015.6 0.0
16/08:30am 15.5 13.4 11.1 75 2.4 ESE 13 19 7 10 1015.6 1015.2 0.0
16/08:00am 13.1 12.3 11.2 88 1.0 NE 6 7 3 4 1015.4 1015.0 0.0
16/07:30am 9.8 9.3 7.7 87 1.0 CALM 0 6 0 3 1015.1 1014.7 0.0
16/07:00am 9.8 9.3 7.7 87 1.0 CALM 0 0 0 0 1015.0 1014.6 0.0
16/06:30am 11.1 10.9 9.2 88 1.0 CALM 0 0 0 0 1014.6 1014.2 0.0
16/06:00am 12.0 11.2 9.7 86 1.2 SSE 4 7 2 4 1014.4 1014.0 0.0
16/05:30am 13.0 12.0 10.9 87 1.1 SE 7 9 4 5 1014.2 1013.8 0.0
16/05:00am 13.2 12.2 10.9 86 1.2 SE 7 11 4 6 1013.9 1013.5 0.0
16/04:30am 13.7 12.8 11.2 85 1.3 ESE 7 9 4 5 1014.1 1013.7 0.0
16/04:00am 14.0 12.7 11.3 84 1.4 SE 9 13 5 7 1014.1 1013.7 0.0
16/03:30am 14.2 12.9 11.4 83 1.5 SE 9 11 5 6 1014.1 1013.7 0.0
16/03:00am 14.4 13.5 11.2 81 1.7 SSE 7 11 4 6 1014.3 1013.9 0.0
16/02:30am 15.0 14.2 11.6 80 1.8 SE 7 11 4 6 1014.4 1014.0 0.0

Other formats

Comma delimited format used in spreadsheet applications
http://www.bom.gov.au/fwo/IDS60801/IDS60801.95654.axf

JavaScript Object Notation format (JSON) in row-major order
http://www.bom.gov.au/fwo/IDS60801/IDS60801.95654.json

Data quality

Most of these data are generated automatically and are frequently updated. Quality checks on data are not normally performed. It is possible for incorrect values to appear. Refer to information at About Latest Weather Observations and please check the disclaimer before using these data.